createdAt,value
2023-04-22T00:02:06.522Z,2.60
2023-04-22T00:04:35.342Z,2.63
2023-04-22T00:07:06.465Z,2.85
2023-04-22T00:09:34.603Z,2.60
2023-04-22T00:12:03.004Z,2.65
2023-04-22T00:14:30.937Z,2.50
2023-04-22T00:16:59.169Z,2.40
2023-04-22T00:19:28.508Z,2.20
2023-04-22T00:21:59.059Z,2.50
2023-04-22T00:24:30.794Z,2.53
2023-04-22T00:26:58.815Z,2.20
2023-04-22T00:29:27.087Z,2.20
2023-04-22T00:31:57.486Z,2.30
2023-04-22T00:34:25.707Z,2.58
2023-04-22T00:36:55.212Z,2.40
2023-04-22T00:39:23.249Z,2.20
2023-04-22T00:41:51.321Z,2.05
2023-04-22T00:44:19.622Z,2.42
2023-04-22T00:46:48.290Z,2.30
2023-04-22T00:49:17.088Z,2.30
2023-04-22T00:51:44.990Z,2.33
2023-04-22T00:54:16.553Z,2.60
2023-04-22T00:56:44.819Z,2.53
2023-04-22T00:59:12.944Z,2.50
2023-04-22T01:01:41.104Z,2.53
2023-04-22T01:04:12.255Z,2.30
2023-04-22T01:06:42.193Z,2.60
2023-04-22T01:09:10.310Z,2.15
2023-04-22T01:11:39.672Z,2.38
2023-04-22T01:14:07.769Z,2.53
2023-04-22T01:16:39.140Z,2.17
2023-04-22T01:19:09.633Z,2.58
2023-04-22T01:21:39.724Z,2.10
2023-04-22T01:24:10.154Z,2.60
2023-04-22T01:26:38.552Z,2.05
2023-04-22T01:29:09.173Z,2.38
2023-04-22T01:31:38.998Z,2.30
2023-04-22T01:34:07.176Z,2.42
2023-04-22T01:36:35.268Z,2.92
2023-04-22T01:39:03.443Z,2.15
2023-04-22T01:41:32.876Z,2.13
2023-04-22T01:44:03.796Z,2.55
2023-04-22T01:46:31.885Z,2.15
2023-04-22T01:48:59.911Z,2.08
2023-04-22T01:51:31.711Z,2.38
2023-04-22T01:53:59.804Z,2.50
2023-04-22T01:56:31.830Z,2.40
2023-04-22T01:58:59.860Z,2.22
2023-04-22T02:01:27.778Z,2.42
2023-04-22T02:03:55.834Z,2.00
2023-04-22T02:06:23.835Z,2.35
2023-04-22T02:08:51.927Z,2.88
2023-04-22T02:11:19.930Z,2.30
2023-04-22T02:13:49.968Z,2.30
2023-04-22T02:16:18.087Z,2.25
2023-04-22T02:18:46.091Z,2.30
2023-04-22T02:21:14.155Z,2.53
2023-04-22T02:23:47.065Z,2.17
2023-04-22T02:26:15.059Z,2.42
2023-04-22T02:28:43.107Z,2.15
2023-04-22T02:31:12.440Z,2.13
2023-04-22T02:36:11.127Z,2.00
2023-04-22T02:38:39.203Z,2.50
2023-04-22T02:41:07.208Z,2.50
2023-04-22T02:43:35.091Z,2.50
2023-04-22T02:46:03.077Z,2.10
2023-04-22T02:48:32.405Z,2.30
2023-04-22T02:51:00.444Z,2.40
2023-04-22T02:53:28.380Z,2.20
2023-04-22T02:55:56.993Z,2.80
2023-04-22T02:58:26.217Z,2.67
2023-04-22T03:00:54.479Z,2.70
2023-04-22T03:03:22.724Z,2.40
2023-04-22T03:05:52.230Z,2.15
2023-04-22T03:08:20.576Z,2.60
2023-04-22T03:10:48.473Z,2.28
2023-04-22T03:13:16.430Z,2.35
2023-04-22T03:15:44.485Z,2.70
2023-04-22T03:18:12.687Z,2.20
2023-04-22T03:20:40.733Z,2.60
2023-04-22T03:23:10.074Z,2.47
2023-04-22T03:25:38.034Z,2.42
2023-04-22T03:28:08.763Z,2.20
2023-04-22T03:30:36.769Z,2.47
2023-04-22T03:33:07.857Z,2.40
2023-04-22T03:35:35.916Z,2.90
2023-04-22T03:38:03.873Z,2.13
2023-04-22T03:40:35.871Z,2.25
2023-04-22T03:43:04.624Z,2.40
2023-04-22T03:45:32.620Z,2.30
2023-04-22T03:48:00.663Z,2.47
2023-04-22T03:50:31.474Z,2.53
2023-04-22T03:52:59.464Z,2.55
2023-04-22T03:55:27.448Z,2.28
2023-04-22T03:57:56.825Z,2.20
2023-04-22T04:00:24.801Z,2.50
2023-04-22T04:02:52.923Z,2.30
2023-04-22T04:05:21.371Z,2.28
2023-04-22T04:07:49.307Z,2.63
2023-04-22T04:10:17.284Z,2.15
2023-04-22T04:12:45.211Z,2.40
2023-04-22T04:15:19.257Z,2.60
2023-04-22T04:17:48.161Z,2.33
2023-04-22T04:20:16.625Z,2.20
2023-04-22T04:22:44.625Z,2.50
2023-04-22T04:25:12.599Z,2.42
2023-04-22T04:27:41.613Z,2.70
2023-04-22T04:30:10.804Z,2.63
2023-04-22T04:32:40.180Z,2.53
2023-04-22T04:35:08.920Z,2.60
2023-04-22T04:37:37.152Z,2.50
2023-04-22T04:40:06.106Z,2.45
2023-04-22T04:42:34.535Z,2.60
2023-04-22T04:45:02.545Z,2.42
2023-04-22T04:47:33.922Z,2.83
2023-04-22T04:50:06.582Z,2.63
2023-04-22T04:52:34.654Z,3.38
2023-04-22T04:55:02.591Z,2.97
2023-04-22T04:57:33.497Z,3.10
2023-04-22T05:00:01.697Z,3.30
2023-04-22T05:02:32.528Z,3.22
2023-04-22T05:05:00.613Z,3.15
2023-04-22T05:07:30.100Z,2.80
2023-04-22T05:09:58.180Z,3.20
2023-04-22T05:12:26.392Z,3.17
2023-04-22T05:14:54.643Z,3.42
2023-04-22T05:17:25.208Z,3.10
2023-04-22T05:19:53.245Z,3.15
2023-04-22T05:22:21.226Z,3.15
2023-04-22T05:24:50.536Z,2.90
2023-04-22T05:27:18.909Z,3.20
2023-04-22T05:29:49.354Z,3.10
2023-04-22T05:32:20.444Z,3.15
2023-04-22T05:34:48.530Z,3.53
2023-04-22T05:37:16.530Z,2.90
2023-04-22T05:39:44.408Z,3.08
2023-04-22T05:42:13.712Z,3.15
2023-04-22T05:44:41.627Z,2.78
2023-04-22T05:47:09.715Z,3.10
2023-04-22T05:49:37.910Z,2.80
2023-04-22T05:52:06.106Z,2.95
2023-04-22T05:54:34.127Z,3.08
2023-04-22T05:57:02.514Z,3.00
2023-04-22T05:59:34.419Z,3.20
2023-04-22T06:02:02.571Z,2.72
2023-04-22T06:04:32.315Z,3.00
2023-04-22T06:07:01.681Z,2.67
2023-04-22T06:09:29.648Z,2.80
2023-04-22T06:11:58.203Z,2.85
2023-04-22T06:14:28.247Z,2.90
2023-04-22T06:16:57.572Z,3.30
2023-04-22T06:19:28.416Z,3.15
2023-04-22T06:21:56.417Z,3.30
2023-04-22T06:24:24.340Z,2.90
2023-04-22T06:26:52.264Z,3.08
2023-04-22T06:29:20.249Z,2.72
2023-04-22T06:31:48.302Z,2.88
2023-04-22T06:34:17.693Z,3.15
2023-04-22T06:36:45.758Z,3.08
2023-04-22T06:39:13.706Z,2.78
2023-04-22T06:41:44.301Z,2.85
2023-04-22T06:44:13.919Z,3.28
2023-04-22T06:46:41.867Z,3.25
2023-04-22T06:49:10.038Z,3.35
2023-04-22T06:51:39.419Z,3.05
2023-04-22T06:54:07.448Z,3.70
2023-04-22T06:56:36.125Z,3.08
2023-04-22T06:59:04.133Z,3.55
2023-04-22T07:01:32.112Z,3.65
2023-04-22T07:04:00.241Z,3.30
2023-04-22T07:06:28.320Z,3.17
2023-04-22T07:08:57.608Z,3.33
2023-04-22T07:11:26.355Z,3.10
2023-04-22T07:13:54.314Z,2.97
2023-04-22T07:16:22.264Z,2.90
2023-04-22T07:18:50.277Z,2.92
2023-04-22T07:21:18.277Z,3.05
2023-04-22T07:23:46.213Z,3.00
2023-04-22T07:26:15.736Z,3.10
2023-04-22T07:28:43.656Z,2.80
2023-04-22T07:31:11.772Z,2.47
2023-04-22T07:33:39.974Z,2.60
2023-04-22T07:36:08.273Z,2.80
2023-04-22T07:38:36.357Z,2.47
2023-04-22T07:41:04.337Z,2.55
2023-04-22T07:43:33.643Z,2.75
2023-04-22T07:46:04.188Z,2.63
2023-04-22T07:48:32.120Z,2.30
2023-04-22T07:51:00.107Z,2.40
2023-04-22T07:53:28.040Z,2.58
2023-04-22T07:55:56.775Z,2.65
2023-04-22T07:58:24.795Z,2.53
2023-04-22T08:00:54.142Z,2.95
2023-04-22T08:03:25.180Z,2.67
2023-04-22T08:05:58.162Z,2.67
2023-04-22T08:08:28.960Z,2.50
2023-04-22T08:10:58.085Z,2.35
2023-04-22T08:13:26.230Z,2.28
2023-04-22T08:15:55.612Z,2.40
2023-04-22T08:18:23.762Z,2.67
2023-04-22T08:20:51.649Z,2.58
2023-04-22T08:23:19.639Z,2.85
2023-04-22T08:25:47.949Z,2.30
2023-04-22T08:28:16.265Z,2.80
2023-04-22T08:30:44.229Z,2.30
2023-04-22T08:33:13.540Z,2.70
2023-04-22T08:35:41.893Z,2.70
2023-04-22T08:38:09.943Z,2.50
2023-04-22T08:40:41.533Z,2.33
2023-04-22T08:43:10.113Z,2.63
2023-04-22T08:45:40.443Z,2.72
2023-04-22T08:48:09.814Z,2.42
2023-04-22T08:50:40.625Z,2.30
2023-04-22T08:53:08.713Z,2.10
2023-04-22T08:55:37.385Z,2.20
2023-04-22T08:58:06.235Z,2.40
2023-04-22T09:00:34.995Z,2.38
2023-04-22T09:03:04.151Z,2.38
2023-04-22T09:05:34.830Z,2.72
2023-04-22T09:08:04.588Z,2.25
2023-04-22T09:10:34.242Z,2.50
2023-04-22T09:13:04.545Z,3.33
2023-04-22T09:15:32.653Z,2.55
2023-04-22T09:18:00.792Z,2.50
2023-04-22T09:20:31.661Z,2.42
2023-04-22T09:23:05.611Z,2.63
2023-04-22T09:25:36.304Z,2.33
2023-04-22T09:28:04.348Z,2.42
2023-04-22T09:30:33.796Z,2.28
2023-04-22T09:33:04.929Z,2.60
2023-04-22T09:35:35.350Z,2.55
2023-04-22T09:38:09.331Z,2.30
2023-04-22T09:40:38.777Z,2.13
2023-04-22T09:43:08.704Z,2.17
2023-04-22T09:45:38.004Z,2.05
2023-04-22T09:50:39.098Z,2.15
2023-04-22T09:53:10.021Z,2.33
2023-04-22T09:55:41.483Z,2.50
2023-04-22T09:58:11.490Z,2.40
2023-04-22T10:00:47.203Z,2.50
2023-04-22T10:05:45.617Z,2.50
2023-04-22T10:08:16.996Z,2.75
2023-04-22T10:10:45.912Z,2.20
2023-04-22T10:13:14.062Z,2.28
2023-04-22T10:15:44.219Z,2.22
2023-04-22T10:18:15.108Z,2.25
2023-04-22T10:20:44.259Z,2.42
2023-04-22T10:23:19.158Z,2.60
2023-04-22T10:25:51.423Z,2.58
2023-04-22T10:28:24.123Z,2.40
2023-04-22T10:30:52.503Z,2.20
2023-04-22T10:33:40.018Z,2.50
2023-04-22T10:36:10.424Z,2.25
2023-04-22T10:38:41.657Z,2.47
2023-04-22T10:41:15.162Z,2.40
2023-04-22T10:43:44.798Z,2.42
2023-04-22T10:46:45.867Z,2.30
2023-04-22T10:49:15.576Z,2.42
2023-04-22T10:51:46.932Z,2.40
2023-04-22T10:55:02.689Z,2.63
2023-04-22T10:57:42.337Z,2.28
2023-04-22T11:00:41.697Z,2.47
2023-04-22T11:03:18.710Z,2.08
2023-04-22T11:05:47.147Z,2.33
2023-04-22T11:08:20.658Z,2.33
2023-04-22T11:10:51.705Z,2.47
2023-04-22T11:13:21.492Z,2.25
2023-04-22T11:15:51.527Z,2.20
2023-04-22T11:18:21.924Z,2.20
2023-04-22T11:20:51.241Z,2.00
2023-04-22T11:23:22.082Z,2.40
2023-04-22T11:25:55.672Z,2.05
2023-04-22T11:28:23.918Z,2.20
2023-04-22T11:30:52.482Z,2.42
2023-04-22T11:33:21.028Z,2.22
2023-04-22T11:35:50.783Z,2.47
2023-04-22T11:38:18.932Z,2.30
2023-04-22T11:40:47.675Z,2.28
2023-04-22T11:43:18.562Z,2.40
2023-04-22T11:45:49.793Z,2.38
2023-04-22T11:48:20.811Z,2.40
2023-04-22T11:50:48.924Z,2.30
2023-04-22T11:53:18.765Z,2.40
2023-04-22T11:55:50.929Z,2.40
2023-04-22T12:00:54.501Z,2.17
2023-04-22T12:03:24.725Z,2.15
2023-04-22T12:05:55.181Z,2.35
2023-04-22T12:08:26.198Z,2.30
2023-04-22T12:10:56.929Z,2.10
2023-04-22T12:13:29.009Z,2.47
2023-04-22T12:16:00.188Z,2.50
2023-04-22T12:18:31.685Z,2.08
2023-04-22T12:21:09.371Z,2.42
2023-04-22T12:23:43.207Z,2.45
2023-04-22T12:26:11.586Z,2.28
2023-04-22T12:28:42.359Z,2.20
2023-04-22T12:31:10.787Z,2.50
2023-04-22T12:33:39.652Z,2.50
2023-04-22T12:36:08.453Z,2.50
2023-04-22T12:38:36.836Z,2.47
2023-04-22T12:41:05.369Z,2.40
2023-04-22T12:43:37.023Z,2.30
2023-04-22T12:46:08.342Z,2.63
2023-04-22T12:48:37.410Z,3.75
2023-04-22T12:51:06.471Z,2.70
2023-04-22T12:53:37.616Z,2.40
2023-04-22T12:56:05.866Z,2.45
2023-04-22T12:58:36.636Z,2.92
2023-04-22T13:01:06.200Z,2.80
2023-04-22T13:03:34.397Z,2.50
2023-04-22T13:06:05.427Z,2.95
2023-04-22T13:08:33.473Z,2.80
2023-04-22T13:11:01.424Z,2.63
2023-04-22T13:13:29.393Z,2.72
2023-04-22T13:15:57.436Z,3.22
2023-04-22T13:18:26.802Z,2.60
2023-04-22T13:20:56.831Z,3.17
2023-04-22T13:23:25.901Z,2.85
2023-04-22T13:25:54.500Z,2.80
2023-04-22T13:28:22.574Z,2.30
2023-04-22T13:30:50.742Z,3.05
2023-04-22T13:33:18.723Z,2.72
2023-04-22T13:35:48.015Z,2.80
2023-04-22T13:38:16.054Z,2.55
2023-04-22T13:40:43.984Z,2.60
2023-04-22T13:43:13.673Z,2.83
2023-04-22T13:45:42.770Z,3.03
2023-04-22T13:48:11.115Z,3.22
2023-04-22T13:50:42.605Z,2.90
2023-04-22T13:53:13.002Z,3.10
2023-04-22T13:55:43.336Z,2.63
2023-04-22T13:58:12.054Z,3.00
2023-04-22T14:00:40.048Z,3.03
2023-04-22T14:03:08.223Z,3.10
2023-04-22T14:05:36.971Z,2.88
2023-04-22T14:08:04.986Z,3.00
2023-04-22T14:10:34.392Z,2.80
2023-04-22T14:13:02.469Z,3.42
2023-04-22T14:15:30.493Z,3.35
2023-04-22T14:17:58.399Z,3.08
2023-04-22T14:20:27.850Z,3.22
2023-04-22T14:22:56.048Z,3.15
2023-04-22T14:25:26.599Z,3.03
2023-04-22T14:28:04.360Z,3.10
2023-04-22T14:30:32.424Z,3.15
2023-04-22T14:33:06.966Z,3.20
2023-04-22T14:35:35.156Z,2.80
2023-04-22T14:38:03.954Z,3.17
2023-04-22T14:40:32.015Z,3.03
2023-04-22T14:43:03.564Z,3.13
2023-04-22T14:45:32.398Z,2.90
2023-04-22T14:48:00.604Z,3.85
2023-04-22T14:50:28.754Z,4.07
2023-04-22T14:52:59.329Z,3.35
2023-04-22T14:55:27.853Z,3.55
2023-04-22T14:57:57.697Z,3.28
2023-04-22T15:00:30.237Z,3.10
2023-04-22T15:02:58.504Z,3.10
2023-04-22T15:05:28.375Z,3.17
2023-04-22T15:07:57.684Z,2.92
2023-04-22T15:10:26.354Z,3.20
2023-04-22T15:12:54.997Z,3.35
2023-04-22T15:15:22.998Z,3.70
2023-04-22T15:17:52.368Z,3.08
2023-04-22T15:20:20.447Z,3.20
2023-04-22T15:22:50.750Z,3.30
2023-04-22T15:25:18.900Z,3.28
2023-04-22T15:27:46.937Z,3.20
2023-04-22T15:30:15.139Z,3.67
2023-04-22T15:32:43.130Z,3.38
2023-04-22T15:35:12.691Z,3.67
2023-04-22T15:37:40.853Z,3.67
2023-04-22T15:40:10.112Z,3.30
2023-04-22T15:42:38.108Z,3.30
2023-04-22T15:45:09.922Z,3.40
2023-04-22T15:47:38.648Z,3.88
2023-04-22T15:50:09.230Z,3.70
2023-04-22T15:52:39.572Z,3.33
2023-04-22T15:55:09.433Z,4.22
2023-04-22T15:57:37.566Z,3.65
2023-04-22T16:00:11.680Z,3.22
2023-04-22T16:02:40.806Z,3.60
2023-04-22T16:05:09.351Z,3.45
2023-04-22T16:07:38.741Z,3.60
2023-04-22T16:10:07.928Z,3.85
2023-04-22T16:12:35.890Z,3.38
2023-04-22T16:15:04.026Z,3.65
2023-04-22T16:17:32.089Z,3.60
2023-04-22T16:20:03.097Z,3.58
2023-04-22T16:22:31.079Z,3.53
2023-04-22T16:25:00.482Z,3.60
2023-04-22T16:27:28.427Z,3.80
2023-04-22T16:29:56.333Z,3.45
2023-04-22T16:32:24.300Z,3.90
2023-04-22T16:34:52.295Z,3.70
2023-04-22T16:37:20.259Z,4.28
2023-04-22T16:39:48.270Z,3.78
2023-04-22T16:42:17.571Z,4.07
2023-04-22T16:44:45.817Z,4.20
2023-04-22T16:47:13.764Z,3.90
2023-04-22T16:49:42.060Z,4.13
2023-04-22T16:52:10.357Z,4.15
2023-04-22T16:54:38.428Z,3.60
2023-04-22T16:57:07.517Z,3.58
2023-04-22T16:59:39.486Z,3.70
2023-04-22T17:02:10.592Z,3.50
2023-04-22T17:04:38.616Z,4.00
2023-04-22T17:07:06.622Z,3.40
2023-04-22T17:09:34.575Z,3.30
2023-04-22T17:12:02.704Z,3.50
2023-04-22T17:14:31.113Z,3.70
2023-04-22T17:17:00.466Z,3.60
2023-04-22T17:19:28.390Z,3.53
2023-04-22T17:21:56.637Z,3.97
2023-04-22T17:24:24.989Z,3.85
2023-04-22T17:26:53.092Z,3.42
2023-04-22T17:29:21.839Z,3.38
2023-04-22T17:31:50.518Z,3.60
2023-04-22T17:34:19.939Z,3.42
2023-04-22T17:36:47.979Z,3.30
2023-04-22T17:39:16.022Z,3.60
2023-04-22T17:41:44.897Z,3.55
2023-04-22T17:44:15.920Z,3.40
2023-04-22T17:46:44.014Z,3.88
2023-04-22T17:49:12.072Z,3.42
2023-04-22T17:51:41.481Z,4.00
2023-04-22T17:54:09.479Z,3.55
2023-04-22T17:56:37.487Z,3.08
2023-04-22T17:59:05.472Z,3.47
2023-04-22T18:01:33.652Z,3.63
2023-04-22T18:04:01.753Z,3.88
2023-04-22T18:06:29.939Z,3.72
2023-04-22T18:08:59.299Z,3.67
2023-04-22T18:11:28.012Z,3.53
2023-04-22T18:13:56.094Z,3.75
2023-04-22T18:16:24.204Z,3.60
2023-04-22T18:18:52.235Z,3.40
2023-04-22T18:21:20.487Z,3.42
2023-04-22T18:23:48.558Z,3.30
2023-04-22T18:26:17.916Z,4.00
2023-04-22T18:28:45.838Z,4.05
2023-04-22T18:31:13.891Z,3.47
2023-04-22T18:33:41.961Z,3.90
2023-04-22T18:36:10.330Z,3.70
2023-04-22T18:38:38.927Z,4.05
2023-04-22T18:41:07.069Z,3.70
2023-04-22T18:43:36.740Z,4.40
2023-04-22T18:46:04.729Z,3.60
2023-04-22T18:48:32.745Z,4.15
2023-04-22T18:51:00.756Z,4.75
2023-04-22T18:53:28.722Z,3.97
2023-04-22T18:55:56.760Z,4.15
2023-04-22T18:58:24.810Z,4.60
2023-04-22T19:00:54.271Z,4.10
2023-04-22T19:03:22.454Z,4.38
2023-04-22T19:05:51.113Z,3.90
2023-04-22T19:08:19.084Z,4.03
2023-04-22T19:10:47.087Z,5.18
2023-04-22T19:13:28.506Z,4.75
2023-04-22T19:15:59.992Z,5.18
2023-04-22T19:18:28.064Z,4.32
2023-04-22T19:20:56.180Z,5.63
2023-04-22T19:23:24.272Z,5.38
2023-04-22T19:25:52.322Z,5.43
2023-04-22T19:28:20.329Z,5.75
2023-04-22T19:30:48.367Z,4.38
2023-04-22T19:33:17.724Z,5.05
2023-04-22T19:35:45.840Z,4.95
2023-04-22T19:38:19.066Z,4.78
2023-04-22T19:40:47.442Z,5.35
2023-04-22T19:43:17.026Z,4.05
2023-04-22T19:45:45.111Z,4.82
2023-04-22T19:48:18.593Z,4.70
2023-04-22T19:50:46.888Z,4.43
2023-04-22T19:53:15.038Z,4.78
2023-04-22T19:55:44.031Z,4.25
2023-04-22T19:58:12.302Z,4.60
2023-04-22T20:00:42.475Z,4.57
2023-04-22T20:03:13.212Z,4.50
2023-04-22T20:05:44.645Z,5.25
2023-04-22T20:08:14.670Z,4.57
2023-04-22T20:10:42.907Z,4.70
2023-04-22T20:13:11.594Z,5.03
2023-04-22T20:15:39.960Z,5.03
2023-04-22T20:18:08.467Z,5.13
2023-04-22T20:20:36.762Z,5.18
2023-04-22T20:23:10.450Z,4.82
2023-04-22T20:25:40.665Z,5.38
2023-04-22T20:28:10.664Z,4.97
2023-04-22T20:30:39.072Z,5.35
2023-04-22T20:33:12.385Z,5.53
2023-04-22T20:35:41.025Z,5.10
2023-04-22T20:38:15.154Z,5.43
2023-04-22T20:40:45.476Z,5.28
2023-04-22T20:43:14.073Z,4.97
2023-04-22T20:45:43.193Z,5.20
2023-04-22T20:48:13.987Z,6.38
2023-04-22T20:50:42.052Z,5.53
2023-04-22T20:53:10.185Z,5.60
2023-04-22T20:55:39.542Z,5.80
2023-04-22T20:58:07.472Z,6.32
2023-04-22T21:00:37.530Z,7.05
2023-04-22T21:03:09.599Z,6.40
2023-04-22T21:08:22.873Z,6.70
2023-04-22T21:10:53.824Z,6.20
2023-04-22T21:13:22.972Z,7.00
2023-04-22T21:15:58.851Z,6.72
2023-04-22T21:18:27.808Z,4.75
2023-04-22T21:20:58.116Z,6.18
2023-04-22T21:23:26.742Z,8.73
2023-04-22T21:25:57.423Z,7.35
2023-04-22T21:28:26.337Z,6.93
2023-04-22T21:30:54.901Z,7.40
2023-04-22T21:33:25.239Z,6.72
2023-04-22T21:35:53.362Z,7.43
2023-04-22T21:38:21.787Z,7.63
2023-04-22T21:40:49.800Z,7.25
2023-04-22T21:43:22.316Z,7.15
2023-04-22T21:45:50.635Z,7.47
2023-04-22T21:48:18.815Z,8.75
2023-04-22T21:50:46.850Z,6.95
2023-04-22T21:53:14.831Z,7.53
2023-04-22T21:55:42.962Z,7.63
2023-04-22T21:58:10.916Z,7.80
2023-04-22T22:00:43.035Z,8.43
2023-04-22T22:03:12.618Z,7.90
2023-04-22T22:05:41.103Z,8.20
2023-04-22T22:08:09.379Z,8.40
2023-04-22T22:10:37.344Z,8.65
2023-04-22T22:13:05.352Z,7.97
2023-04-22T22:15:33.418Z,8.27
2023-04-22T22:18:04.176Z,8.57
2023-04-22T22:20:36.626Z,8.50
2023-04-22T22:23:04.629Z,8.80
2023-04-22T22:25:32.633Z,8.38
2023-04-22T22:28:00.569Z,7.55
2023-04-22T22:30:28.723Z,8.30
2023-04-22T22:32:56.696Z,7.55
2023-04-22T22:35:26.086Z,7.95
2023-04-22T22:37:53.994Z,8.77
2023-04-22T22:40:21.980Z,8.15
2023-04-22T22:42:52.678Z,9.25
2023-04-22T22:45:20.732Z,7.80
2023-04-22T22:47:48.764Z,8.63
2023-04-22T22:50:16.742Z,8.68
2023-04-22T22:52:46.173Z,8.70
2023-04-22T22:55:14.134Z,8.38
2023-04-22T22:57:42.676Z,7.97
2023-04-22T23:00:12.716Z,7.45
2023-04-22T23:02:40.955Z,7.45
2023-04-22T23:05:10.915Z,7.72
2023-04-22T23:07:39.040Z,8.10
2023-04-22T23:10:10.004Z,8.13
2023-04-22T23:12:38.032Z,7.82
2023-04-22T23:15:07.654Z,7.47
2023-04-22T23:17:37.263Z,7.88
2023-04-22T23:20:07.378Z,7.47
2023-04-22T23:22:37.466Z,8.10
2023-04-22T23:25:06.215Z,7.72
2023-04-22T23:27:36.219Z,7.15
2023-04-22T23:30:04.657Z,7.75
2023-04-22T23:32:33.378Z,7.55
2023-04-22T23:35:02.169Z,7.25
2023-04-22T23:37:30.850Z,6.55
2023-04-22T23:39:58.839Z,6.60
2023-04-22T23:42:26.752Z,6.97
2023-04-22T23:44:56.095Z,7.18
2023-04-22T23:47:23.963Z,7.75
2023-04-22T23:49:52.012Z,7.43
2023-04-22T23:52:20.741Z,7.35
2023-04-22T23:54:49.497Z,7.40
2023-04-22T23:57:17.868Z,7.40
2023-04-22T23:59:46.420Z,7.53
